FIN633 LKPR-ESGG
Flight info
| Callsign | FIN633 |
|---|---|
| Flight time | 1h 11m |
| Altitude | 40000 |
| Route | VENOX DCT DEKOV Y621 GARKI DCT POGAB DCT RENKI DCT USEDU DCT SALLO DCT IBREK DCT LASLI N15 RISMA |
| Aircraft | A359/H-SDE2E3GHIJ3J4J5LM1ORWXY/LB1D1 |
Departure
| Time | 2026-05-06 17:40 |
|---|---|
| Airport | Václav Havel Airport Prague (LKPR) |
Arrival
| Time | 2026-05-06 18:52 |
|---|---|
| Airport | Göteborg Landvetter Airport (ESGG) |
| Time | Latitude | Longitude | Altitude | Speed | Heading |
|---|---|---|---|---|---|
| 2026-05-06 17:02 | 50.11100 | 14.26934 | 1177 ft | 0 kts | 245° |
| 2026-05-06 17:21 | 50.11105 | 14.26951 | 1180 ft | 3 kts | 245° |
| 2026-05-06 17:21 | 50.11113 | 14.26979 | 1181 ft | 2 kts | 245° |
| 2026-05-06 17:21 | 50.11120 | 14.27001 | 1182 ft | 3 kts | 263° |
| 2026-05-06 17:21 | 50.11118 | 14.27026 | 1184 ft | 3 kts | 312° |
| 2026-05-06 17:22 | 50.11103 | 14.27044 | 1178 ft | 3 kts | 335° |
| 2026-05-06 17:22 | 50.11089 | 14.27054 | 1181 ft | 1 kts | 335° |
| 2026-05-06 17:22 | 50.11085 | 14.27057 | 1182 ft | 0 kts | 335° |
| 2026-05-06 17:28 | 50.11127 | 14.27026 | 1181 ft | 10 kts | 335° |
| 2026-05-06 17:28 | 50.11175 | 14.26980 | 1177 ft | 4 kts | 303° |
| 2026-05-06 17:28 | 50.11177 | 14.26919 | 1175 ft | 9 kts | 259° |
| 2026-05-06 17:29 | 50.11151 | 14.26785 | 1177 ft | 15 kts | 246° |
| 2026-05-06 17:29 | 50.11100 | 14.26640 | 1175 ft | 16 kts | 244° |
| 2026-05-06 17:29 | 50.11029 | 14.26484 | 1172 ft | 10 kts | 235° |
| 2026-05-06 17:29 | 50.11032 | 14.26464 | 1172 ft | 1 kts | 295° |
| 2026-05-06 17:30 | 50.11065 | 14.26406 | 1171 ft | 17 kts | 308° |
| 2026-05-06 17:30 | 50.11046 | 14.26263 | 1172 ft | 14 kts | 222° |
| 2026-05-06 17:30 | 50.10963 | 14.26169 | 1171 ft | 16 kts | 214° |
| 2026-05-06 17:30 | 50.10870 | 14.26072 | 1175 ft | 16 kts | 214° |
| 2026-05-06 17:31 | 50.10783 | 14.25977 | 1172 ft | 16 kts | 215° |
| 2026-05-06 17:31 | 50.10694 | 14.25880 | 1185 ft | 15 kts | 214° |
| 2026-05-06 17:31 | 50.10605 | 14.25811 | 1189 ft | 13 kts | 176° |
| 2026-05-06 17:31 | 50.10559 | 14.25859 | 1191 ft | 12 kts | 131° |
| 2026-05-06 17:32 | 50.10510 | 14.25961 | 1194 ft | 11 kts | 126° |
| 2026-05-06 17:32 | 50.10462 | 14.26056 | 1197 ft | 12 kts | 128° |
| 2026-05-06 17:32 | 50.10410 | 14.26163 | 1198 ft | 14 kts | 127° |
| 2026-05-06 17:32 | 50.10350 | 14.26287 | 1200 ft | 15 kts | 126° |
| 2026-05-06 17:33 | 50.10286 | 14.26422 | 1201 ft | 17 kts | 126° |
| 2026-05-06 17:33 | 50.10218 | 14.26567 | 1206 ft | 16 kts | 127° |
| 2026-05-06 17:33 | 50.10150 | 14.26704 | 1210 ft | 16 kts | 127° |
| 2026-05-06 17:33 | 50.10083 | 14.26844 | 1214 ft | 16 kts | 127° |
| 2026-05-06 17:34 | 50.10012 | 14.26989 | 1215 ft | 18 kts | 127° |
| 2026-05-06 17:34 | 50.09933 | 14.27152 | 1217 ft | 19 kts | 127° |
| 2026-05-06 17:34 | 50.09844 | 14.27324 | 1218 ft | 21 kts | 132° |
| 2026-05-06 17:34 | 50.09740 | 14.27489 | 1220 ft | 22 kts | 134° |
| 2026-05-06 17:35 | 50.09632 | 14.27655 | 1226 ft | 21 kts | 137° |
| 2026-05-06 17:35 | 50.09531 | 14.27807 | 1232 ft | 20 kts | 135° |
| 2026-05-06 17:35 | 50.09438 | 14.27950 | 1252 ft | 18 kts | 135° |
| 2026-05-06 17:36 | 50.09253 | 14.28232 | 1258 ft | 15 kts | 136° |
| 2026-05-06 17:36 | 50.09164 | 14.28265 | 1255 ft | 2 kts | 197° |
| 2026-05-06 17:36 | 50.09163 | 14.28265 | 1255 ft | 0 kts | 197° |
| 2026-05-06 17:39 | 50.09137 | 14.28242 | 1253 ft | 10 kts | 217° |
| 2026-05-06 17:39 | 50.09098 | 14.28143 | 1248 ft | 13 kts | 263° |
| 2026-05-06 17:39 | 50.09128 | 14.27999 | 1255 ft | 5 kts | 302° |
| 2026-05-06 17:39 | 50.09142 | 14.27965 | 1253 ft | 23 kts | 304° |
| 2026-05-06 17:40 | 50.09404 | 14.27426 | 1231 ft | 101 kts | 307° |
| 2026-05-06 17:40 | 50.09971 | 14.26261 | 1202 ft | 166 kts | 308° |
| 2026-05-06 17:40 | 50.10714 | 14.24769 | 1805 ft | 175 kts | 309° |
| 2026-05-06 17:40 | 50.11469 | 14.23319 | 2750 ft | 169 kts | 310° |
| 2026-05-06 17:41 | 50.12244 | 14.21992 | 3675 ft | 162 kts | 313° |
| 2026-05-06 17:41 | 50.13003 | 14.20609 | 4223 ft | 179 kts | 304° |
| 2026-05-06 17:41 | 50.13753 | 14.18873 | 4531 ft | 208 kts | 302° |
| 2026-05-06 17:41 | 50.14621 | 14.16883 | 4876 ft | 236 kts | 303° |
| 2026-05-06 17:42 | 50.15627 | 14.14690 | 5354 ft | 258 kts | 304° |
| 2026-05-06 17:42 | 50.16715 | 14.12388 | 6117 ft | 268 kts | 304° |
| 2026-05-06 17:42 | 50.17841 | 14.10032 | 6990 ft | 274 kts | 304° |
| 2026-05-06 17:42 | 50.18977 | 14.07661 | 7947 ft | 278 kts | 304° |
| 2026-05-06 17:43 | 50.20147 | 14.05223 | 8967 ft | 282 kts | 304° |
| 2026-05-06 17:43 | 50.21335 | 14.02764 | 9955 ft | 286 kts | 304° |
| 2026-05-06 17:43 | 50.22774 | 14.00487 | 10635 ft | 308 kts | 320° |
| 2026-05-06 17:43 | 50.24802 | 13.99025 | 11089 ft | 338 kts | 346° |
| 2026-05-06 17:44 | 50.27193 | 13.98648 | 11796 ft | 352 kts | 355° |
| 2026-05-06 17:44 | 50.29666 | 13.98512 | 12666 ft | 358 kts | 355° |
| 2026-05-06 17:44 | 50.32178 | 13.98377 | 13581 ft | 363 kts | 355° |
| 2026-05-06 17:44 | 50.34730 | 13.98512 | 14375 ft | 372 kts | 6° |
| 2026-05-06 17:45 | 50.37231 | 13.99691 | 15118 ft | 379 kts | 22° |
| 2026-05-06 17:45 | 50.39640 | 14.01438 | 15729 ft | 386 kts | 25° |
| 2026-05-06 17:45 | 50.42071 | 14.03302 | 16496 ft | 391 kts | 25° |
| 2026-05-06 17:45 | 50.44534 | 14.05181 | 17303 ft | 395 kts | 25° |
| 2026-05-06 17:46 | 50.47031 | 14.07074 | 18103 ft | 401 kts | 25° |
| 2026-05-06 17:46 | 50.49560 | 14.08983 | 18794 ft | 406 kts | 25° |
| 2026-05-06 17:46 | 50.52090 | 14.10889 | 19491 ft | 411 kts | 25° |
| 2026-05-06 17:46 | 50.54719 | 14.12741 | 20190 ft | 416 kts | 20° |
| 2026-05-06 17:47 | 50.57520 | 14.13998 | 20930 ft | 419 kts | 11° |
| 2026-05-06 17:47 | 50.60395 | 14.14896 | 21642 ft | 423 kts | 8° |
| 2026-05-06 17:47 | 50.63323 | 14.15625 | 22340 ft | 428 kts | 6° |
| 2026-05-06 17:47 | 50.66291 | 14.16282 | 23026 ft | 433 kts | 6° |
| 2026-05-06 17:48 | 50.69299 | 14.16931 | 23525 ft | 437 kts | 6° |
| 2026-05-06 17:48 | 50.72312 | 14.17596 | 23707 ft | 438 kts | 6° |
| 2026-05-06 17:48 | 50.75336 | 14.18286 | 23739 ft | 439 kts | 6° |
| 2026-05-06 17:48 | 50.78368 | 14.18997 | 23744 ft | 441 kts | 7° |
| 2026-05-06 17:49 | 50.81406 | 14.19725 | 23741 ft | 441 kts | 7° |
| 2026-05-06 17:49 | 50.84435 | 14.20457 | 23745 ft | 440 kts | 7° |
| 2026-05-06 17:49 | 50.87465 | 14.21134 | 23740 ft | 438 kts | 4° |
| 2026-05-06 17:49 | 50.90493 | 14.21272 | 23738 ft | 434 kts | 354° |
| 2026-05-06 17:50 | 50.93493 | 14.20899 | 23741 ft | 432 kts | 351° |
| 2026-05-06 17:50 | 50.96440 | 14.20369 | 23742 ft | 430 kts | 350° |
| 2026-05-06 17:50 | 50.99407 | 14.19744 | 23741 ft | 430 kts | 349° |
| 2026-05-06 17:50 | 51.02366 | 14.19077 | 23740 ft | 430 kts | 349° |
| 2026-05-06 17:51 | 51.05330 | 14.18395 | 23748 ft | 430 kts | 349° |
| 2026-05-06 17:51 | 51.08288 | 14.17724 | 23746 ft | 430 kts | 349° |
| 2026-05-06 17:51 | 51.11257 | 14.17099 | 23745 ft | 430 kts | 350° |
| 2026-05-06 17:51 | 51.14221 | 14.16508 | 23753 ft | 430 kts | 350° |
| 2026-05-06 17:52 | 51.17198 | 14.15928 | 23754 ft | 430 kts | 350° |
| 2026-05-06 17:52 | 51.20168 | 14.15352 | 23758 ft | 430 kts | 350° |
| 2026-05-06 17:52 | 51.23107 | 14.14779 | 23751 ft | 431 kts | 350° |
| 2026-05-06 17:52 | 51.26087 | 14.14193 | 23759 ft | 431 kts | 350° |
| 2026-05-06 17:53 | 51.29061 | 14.13605 | 23757 ft | 431 kts | 350° |
| 2026-05-06 17:53 | 51.32042 | 14.13011 | 23758 ft | 431 kts | 350° |
| 2026-05-06 17:53 | 51.35018 | 14.12417 | 23760 ft | 431 kts | 350° |
| 2026-05-06 17:53 | 51.37994 | 14.11822 | 23760 ft | 431 kts | 350° |
| 2026-05-06 17:54 | 51.40965 | 14.11189 | 23762 ft | 430 kts | 348° |
| 2026-05-06 17:54 | 51.43913 | 14.10400 | 23778 ft | 430 kts | 347° |
| 2026-05-06 17:54 | 51.46866 | 14.09515 | 24004 ft | 434 kts | 346° |
| 2026-05-06 17:54 | 51.49843 | 14.08598 | 24617 ft | 436 kts | 346° |
| 2026-05-06 17:55 | 51.52836 | 14.07686 | 25269 ft | 439 kts | 346° |
| 2026-05-06 17:55 | 51.55853 | 14.06786 | 25875 ft | 443 kts | 346° |
| 2026-05-06 17:55 | 51.58900 | 14.05892 | 26455 ft | 447 kts | 347° |
| 2026-05-06 17:55 | 51.61970 | 14.05004 | 27027 ft | 451 kts | 347° |
| 2026-05-06 17:56 | 51.65080 | 14.04111 | 27603 ft | 455 kts | 347° |
| 2026-05-06 17:56 | 51.68210 | 14.03213 | 28161 ft | 459 kts | 347° |
| 2026-05-06 17:56 | 51.71380 | 14.02303 | 28650 ft | 465 kts | 347° |
| 2026-05-06 17:56 | 51.74585 | 14.01381 | 29167 ft | 470 kts | 347° |
| 2026-05-06 17:57 | 51.77816 | 14.00450 | 29696 ft | 473 kts | 346° |
| 2026-05-06 17:57 | 51.81077 | 13.99509 | 30165 ft | 477 kts | 346° |
| 2026-05-06 17:57 | 51.84381 | 13.98746 | 30650 ft | 482 kts | 352° |
| 2026-05-06 17:57 | 51.87745 | 13.98477 | 31096 ft | 486 kts | 355° |
| 2026-05-06 17:58 | 51.91146 | 13.98323 | 31529 ft | 490 kts | 355° |
| 2026-05-06 17:58 | 51.94563 | 13.98231 | 31778 ft | 492 kts | 356° |
| 2026-05-06 17:58 | 52.01426 | 13.98121 | 31802 ft | 494 kts | 356° |
| 2026-05-06 17:59 | 52.08275 | 13.98013 | 31810 ft | 494 kts | 356° |
| 2026-05-06 17:59 | 52.15155 | 13.97883 | 31868 ft | 495 kts | 356° |
| 2026-05-06 18:00 | 52.18611 | 13.97812 | 32227 ft | 498 kts | 356° |
| 2026-05-06 18:00 | 52.22085 | 13.97740 | 32721 ft | 499 kts | 355° |
| 2026-05-06 18:00 | 52.25560 | 13.97668 | 33181 ft | 501 kts | 355° |
| 2026-05-06 18:00 | 52.29052 | 13.97595 | 33578 ft | 503 kts | 355° |
| 2026-05-06 18:01 | 52.32569 | 13.97521 | 33926 ft | 506 kts | 356° |
| 2026-05-06 18:01 | 52.36105 | 13.97447 | 34205 ft | 509 kts | 356° |
| 2026-05-06 18:01 | 52.39659 | 13.97373 | 34550 ft | 510 kts | 356° |
| 2026-05-06 18:01 | 52.43200 | 13.97302 | 35023 ft | 508 kts | 356° |
| 2026-05-06 18:02 | 52.46716 | 13.97231 | 35576 ft | 504 kts | 356° |
| 2026-05-06 18:02 | 52.50181 | 13.97160 | 35999 ft | 503 kts | 356° |
| 2026-05-06 18:02 | 52.53682 | 13.97086 | 36329 ft | 503 kts | 356° |
| 2026-05-06 18:02 | 52.57194 | 13.97040 | 36648 ft | 504 kts | 359° |
| 2026-05-06 18:03 | 52.60697 | 13.97061 | 36932 ft | 504 kts | 359° |
| 2026-05-06 18:03 | 52.64214 | 13.97087 | 37234 ft | 504 kts | 359° |
| 2026-05-06 18:03 | 52.67718 | 13.97085 | 37548 ft | 504 kts | 358° |
| 2026-05-06 18:03 | 52.71226 | 13.97053 | 37858 ft | 503 kts | 358° |
| 2026-05-06 18:04 | 52.74727 | 13.96997 | 38162 ft | 502 kts | 358° |
| 2026-05-06 18:04 | 52.78223 | 13.96925 | 38455 ft | 502 kts | 358° |
| 2026-05-06 18:04 | 52.81725 | 13.96845 | 38679 ft | 502 kts | 358° |
| 2026-05-06 18:04 | 52.85215 | 13.96763 | 38883 ft | 501 kts | 358° |
| 2026-05-06 18:05 | 52.88703 | 13.96681 | 39089 ft | 501 kts | 358° |
| 2026-05-06 18:05 | 52.92141 | 13.96602 | 39305 ft | 501 kts | 358° |
| 2026-05-06 18:05 | 52.95633 | 13.96565 | 39437 ft | 503 kts | 359° |
| 2026-05-06 18:05 | 52.99140 | 13.96576 | 39584 ft | 504 kts | 359° |
| 2026-05-06 18:06 | 53.02653 | 13.96608 | 39773 ft | 504 kts | 359° |
| 2026-05-06 18:06 | 53.06167 | 13.96644 | 39850 ft | 507 kts | 359° |
| 2026-05-06 18:06 | 53.13227 | 13.96704 | 39856 ft | 507 kts | 359° |
| 2026-05-06 18:07 | 53.20283 | 13.96746 | 39859 ft | 507 kts | 359° |
| 2026-05-06 18:07 | 53.27340 | 13.96779 | 39856 ft | 506 kts | 359° |
| 2026-05-06 18:08 | 53.34380 | 13.96812 | 39862 ft | 505 kts | 359° |
| 2026-05-06 18:08 | 53.41414 | 13.96847 | 39862 ft | 505 kts | 359° |
| 2026-05-06 18:09 | 53.48440 | 13.96883 | 39868 ft | 504 kts | 359° |
| 2026-05-06 18:09 | 53.55463 | 13.96918 | 39866 ft | 504 kts | 359° |
| 2026-05-06 18:10 | 53.62433 | 13.96952 | 39877 ft | 504 kts | 359° |
| 2026-05-06 18:10 | 53.69455 | 13.96986 | 39883 ft | 504 kts | 359° |
| 2026-05-06 18:11 | 53.75333 | 13.97014 | 39885 ft | 504 kts | 359° |
| 2026-05-06 18:11 | 53.83485 | 13.97054 | 39895 ft | 504 kts | 359° |
| 2026-05-06 18:12 | 53.90507 | 13.97090 | 39888 ft | 504 kts | 359° |
| 2026-05-06 18:12 | 53.97412 | 13.95646 | 39898 ft | 497 kts | 341° |
| 2026-05-06 18:13 | 54.03977 | 13.92129 | 39900 ft | 493 kts | 339° |
| 2026-05-06 18:13 | 54.10451 | 13.88300 | 39905 ft | 491 kts | 339° |
| 2026-05-06 18:14 | 54.16903 | 13.84418 | 39915 ft | 491 kts | 339° |
| 2026-05-06 18:14 | 54.23355 | 13.80554 | 39923 ft | 491 kts | 339° |
| 2026-05-06 18:15 | 54.29771 | 13.76720 | 39922 ft | 491 kts | 339° |
| 2026-05-06 18:15 | 54.36218 | 13.72861 | 39925 ft | 491 kts | 339° |
| 2026-05-06 18:16 | 54.42675 | 13.68983 | 39931 ft | 491 kts | 339° |
| 2026-05-06 18:16 | 54.48070 | 13.65731 | 39931 ft | 491 kts | 339° |
| 2026-05-06 18:17 | 54.54515 | 13.61835 | 39937 ft | 491 kts | 339° |
| 2026-05-06 18:17 | 54.60955 | 13.57927 | 39937 ft | 491 kts | 339° |
| 2026-05-06 18:18 | 54.67359 | 13.54028 | 39941 ft | 491 kts | 339° |
| 2026-05-06 18:18 | 54.73808 | 13.50089 | 39942 ft | 491 kts | 339° |
| 2026-05-06 18:19 | 54.80255 | 13.46139 | 39939 ft | 490 kts | 339° |
| 2026-05-06 18:19 | 54.86685 | 13.42185 | 39941 ft | 490 kts | 339° |
| 2026-05-06 18:20 | 54.93079 | 13.38232 | 39937 ft | 490 kts | 338° |
| 2026-05-06 18:20 | 54.99382 | 13.33663 | 39962 ft | 488 kts | 334° |
| 2026-05-06 18:21 | 55.05567 | 13.28791 | 39963 ft | 487 kts | 334° |
| 2026-05-06 18:21 | 55.11770 | 13.23968 | 39970 ft | 488 kts | 334° |
| 2026-05-06 18:22 | 55.17988 | 13.19213 | 39962 ft | 488 kts | 335° |
| 2026-05-06 18:22 | 55.24166 | 13.14447 | 39963 ft | 488 kts | 332° |
| 2026-05-06 18:23 | 55.30341 | 13.09516 | 39969 ft | 487 kts | 332° |
| 2026-05-06 18:23 | 55.36530 | 13.04614 | 39969 ft | 487 kts | 332° |
| 2026-05-06 18:24 | 55.39713 | 13.02483 | 39971 ft | 492 kts | 343° |
| 2026-05-06 18:24 | 55.43126 | 13.01694 | 39974 ft | 497 kts | 355° |
| 2026-05-06 18:24 | 55.50069 | 13.01708 | 39972 ft | 500 kts | 358° |
| 2026-05-06 18:25 | 55.57034 | 13.01917 | 39970 ft | 501 kts | 358° |
| 2026-05-06 18:25 | 55.64008 | 13.02133 | 39975 ft | 501 kts | 358° |
| 2026-05-06 18:26 | 55.70995 | 13.02359 | 39967 ft | 502 kts | 358° |
| 2026-05-06 18:26 | 55.77941 | 13.02586 | 39989 ft | 502 kts | 358° |
| 2026-05-06 18:27 | 55.84926 | 13.02837 | 39973 ft | 501 kts | 358° |
| 2026-05-06 18:27 | 55.91900 | 13.03100 | 39977 ft | 501 kts | 358° |
| 2026-05-06 18:28 | 55.98879 | 13.03375 | 39974 ft | 501 kts | 358° |
| 2026-05-06 18:28 | 56.05847 | 13.03653 | 39953 ft | 500 kts | 358° |
| 2026-05-06 18:29 | 56.09305 | 13.03795 | 39497 ft | 496 kts | 358° |
| 2026-05-06 18:29 | 56.12768 | 13.03943 | 38804 ft | 499 kts | 358° |
| 2026-05-06 18:29 | 56.16207 | 13.04094 | 37998 ft | 501 kts | 358° |
| 2026-05-06 18:29 | 56.19702 | 13.04256 | 37151 ft | 502 kts | 358° |
| 2026-05-06 18:30 | 56.23204 | 13.04420 | 36342 ft | 503 kts | 358° |
| 2026-05-06 18:30 | 56.26708 | 13.04585 | 35525 ft | 504 kts | 358° |
| 2026-05-06 18:30 | 56.30215 | 13.04750 | 34777 ft | 504 kts | 358° |
| 2026-05-06 18:30 | 56.33717 | 13.04915 | 34138 ft | 502 kts | 358° |
| 2026-05-06 18:31 | 56.37203 | 13.05081 | 33553 ft | 498 kts | 358° |
| 2026-05-06 18:31 | 56.40649 | 13.05258 | 32967 ft | 493 kts | 359° |
| 2026-05-06 18:31 | 56.44063 | 13.05533 | 32391 ft | 488 kts | 358° |
| 2026-05-06 18:31 | 56.47441 | 13.05543 | 31781 ft | 483 kts | 355° |
| 2026-05-06 18:32 | 56.50782 | 13.05262 | 31214 ft | 477 kts | 352° |
| 2026-05-06 18:32 | 56.54044 | 13.04803 | 30668 ft | 473 kts | 351° |
| 2026-05-06 18:32 | 56.57315 | 13.04235 | 30028 ft | 471 kts | 350° |
| 2026-05-06 18:32 | 56.60565 | 13.03607 | 29258 ft | 469 kts | 350° |
| 2026-05-06 18:33 | 56.63812 | 13.02942 | 28501 ft | 468 kts | 349° |
| 2026-05-06 18:33 | 56.67055 | 13.02259 | 27759 ft | 467 kts | 349° |
| 2026-05-06 18:33 | 56.70234 | 13.01579 | 27072 ft | 465 kts | 349° |
| 2026-05-06 18:33 | 56.73440 | 13.00887 | 26320 ft | 463 kts | 349° |
| 2026-05-06 18:34 | 56.76647 | 13.00188 | 25510 ft | 464 kts | 349° |
| 2026-05-06 18:34 | 56.79857 | 12.99487 | 24691 ft | 458 kts | 349° |
| 2026-05-06 18:34 | 56.82961 | 12.98816 | 23903 ft | 440 kts | 348° |
| 2026-05-06 18:34 | 56.85941 | 12.98170 | 23053 ft | 423 kts | 348° |
| 2026-05-06 18:35 | 56.88806 | 12.97545 | 22165 ft | 408 kts | 348° |
| 2026-05-06 18:35 | 56.91603 | 12.96929 | 21189 ft | 399 kts | 348° |
| 2026-05-06 18:35 | 56.94344 | 12.96320 | 20208 ft | 394 kts | 349° |
| 2026-05-06 18:35 | 56.97010 | 12.95728 | 19268 ft | 388 kts | 349° |
| 2026-05-06 18:36 | 56.99668 | 12.95138 | 18379 ft | 381 kts | 349° |
| 2026-05-06 18:36 | 57.02284 | 12.94557 | 17351 ft | 374 kts | 350° |
| 2026-05-06 18:36 | 57.04848 | 12.93987 | 16480 ft | 369 kts | 350° |
| 2026-05-06 18:36 | 57.07386 | 12.93423 | 16039 ft | 363 kts | 351° |
| 2026-05-06 18:37 | 57.09859 | 12.92747 | 15951 ft | 358 kts | 346° |
| 2026-05-06 18:37 | 57.12289 | 12.91731 | 15949 ft | 357 kts | 344° |
| 2026-05-06 18:37 | 57.14704 | 12.90633 | 15950 ft | 357 kts | 343° |
| 2026-05-06 18:37 | 57.17113 | 12.89528 | 15943 ft | 357 kts | 343° |
| 2026-05-06 18:38 | 57.19525 | 12.88422 | 15943 ft | 357 kts | 343° |
| 2026-05-06 18:38 | 57.21938 | 12.87316 | 15940 ft | 356 kts | 343° |
| 2026-05-06 18:38 | 57.24320 | 12.86227 | 15510 ft | 350 kts | 343° |
| 2026-05-06 18:38 | 57.26654 | 12.85156 | 15009 ft | 347 kts | 344° |
| 2026-05-06 18:39 | 57.28916 | 12.84120 | 14665 ft | 323 kts | 344° |
| 2026-05-06 18:39 | 57.31031 | 12.83150 | 14261 ft | 305 kts | 344° |
| 2026-05-06 18:39 | 57.33058 | 12.82214 | 13628 ft | 297 kts | 344° |
| 2026-05-06 18:40 | 57.37023 | 12.80381 | 11994 ft | 291 kts | 345° |
| 2026-05-06 18:40 | 57.38987 | 12.79472 | 11207 ft | 289 kts | 345° |
| 2026-05-06 18:40 | 57.40934 | 12.78568 | 10466 ft | 287 kts | 345° |
| 2026-05-06 18:40 | 57.42870 | 12.77669 | 9730 ft | 286 kts | 346° |
| 2026-05-06 18:41 | 57.44788 | 12.76779 | 8947 ft | 283 kts | 346° |
| 2026-05-06 18:41 | 57.46695 | 12.75895 | 8184 ft | 280 kts | 346° |
| 2026-05-06 18:41 | 57.48552 | 12.75034 | 7431 ft | 277 kts | 346° |
| 2026-05-06 18:41 | 57.50422 | 12.74166 | 6673 ft | 274 kts | 346° |
| 2026-05-06 18:42 | 57.52260 | 12.73311 | 5939 ft | 271 kts | 346° |
| 2026-05-06 18:42 | 57.54073 | 12.72467 | 5305 ft | 265 kts | 345° |
| 2026-05-06 18:42 | 57.55808 | 12.71658 | 5020 ft | 246 kts | 345° |
| 2026-05-06 18:42 | 57.57411 | 12.70911 | 4985 ft | 234 kts | 346° |
| 2026-05-06 18:43 | 57.58993 | 12.70176 | 4588 ft | 235 kts | 345° |
| 2026-05-06 18:43 | 57.60566 | 12.69439 | 4116 ft | 230 kts | 345° |
| 2026-05-06 18:43 | 57.62079 | 12.68728 | 3677 ft | 225 kts | 345° |
| 2026-05-06 18:43 | 57.63582 | 12.68022 | 3264 ft | 220 kts | 345° |
| 2026-05-06 18:44 | 57.65043 | 12.67214 | 2986 ft | 217 kts | 340° |
| 2026-05-06 18:44 | 57.66457 | 12.66276 | 2714 ft | 214 kts | 339° |
| 2026-05-06 18:44 | 57.67839 | 12.65332 | 2534 ft | 210 kts | 339° |
| 2026-05-06 18:44 | 57.69215 | 12.64388 | 2492 ft | 211 kts | 340° |
| 2026-05-06 18:45 | 57.70598 | 12.63445 | 2494 ft | 210 kts | 339° |
| 2026-05-06 18:45 | 57.71971 | 12.62506 | 2492 ft | 207 kts | 339° |
| 2026-05-06 18:45 | 57.73258 | 12.61629 | 2494 ft | 191 kts | 340° |
| 2026-05-06 18:45 | 57.74088 | 12.61066 | 2505 ft | 187 kts | 339° |
| 2026-05-06 18:46 | 57.75694 | 12.59956 | 2496 ft | 187 kts | 339° |
| 2026-05-06 18:46 | 57.76913 | 12.59113 | 2496 ft | 186 kts | 339° |
| 2026-05-06 18:46 | 57.78131 | 12.58273 | 2496 ft | 187 kts | 340° |
| 2026-05-06 18:46 | 57.79310 | 12.57237 | 2495 ft | 187 kts | 330° |
| 2026-05-06 18:47 | 57.80406 | 12.55959 | 2496 ft | 185 kts | 327° |
| 2026-05-06 18:47 | 57.81488 | 12.54631 | 2494 ft | 186 kts | 327° |
| 2026-05-06 18:47 | 57.82549 | 12.53262 | 2489 ft | 184 kts | 322° |
| 2026-05-06 18:47 | 57.83360 | 12.51424 | 2484 ft | 185 kts | 297° |
| 2026-05-06 18:48 | 57.83593 | 12.49063 | 2495 ft | 187 kts | 268° |
| 2026-05-06 18:48 | 57.83167 | 12.46757 | 2498 ft | 189 kts | 243° |
| 2026-05-06 18:48 | 57.82456 | 12.44674 | 2496 ft | 190 kts | 238° |
| 2026-05-06 18:48 | 57.81692 | 12.42643 | 2496 ft | 191 kts | 236° |
| 2026-05-06 18:49 | 57.80678 | 12.41017 | 2498 ft | 195 kts | 211° |
| 2026-05-06 18:49 | 57.79446 | 12.39947 | 2495 ft | 195 kts | 205° |
| 2026-05-06 18:49 | 57.78225 | 12.38902 | 2495 ft | 192 kts | 208° |
| 2026-05-06 18:49 | 57.77022 | 12.37788 | 2496 ft | 193 kts | 209° |
| 2026-05-06 18:50 | 57.75813 | 12.36668 | 2404 ft | 194 kts | 208° |
| 2026-05-06 18:50 | 57.74602 | 12.35568 | 2127 ft | 194 kts | 209° |
| 2026-05-06 18:50 | 57.73384 | 12.34454 | 1844 ft | 195 kts | 209° |
| 2026-05-06 18:50 | 57.72186 | 12.33361 | 1569 ft | 184 kts | 208° |
| 2026-05-06 18:51 | 57.71083 | 12.32359 | 1320 ft | 169 kts | 210° |
| 2026-05-06 18:51 | 57.70074 | 12.31438 | 1090 ft | 154 kts | 209° |
| 2026-05-06 18:51 | 57.69157 | 12.30603 | 882 ft | 143 kts | 210° |
| 2026-05-06 18:51 | 57.68229 | 12.29756 | 745 ft | 154 kts | 210° |
| 2026-05-06 18:52 | 57.67300 | 12.28908 | 564 ft | 143 kts | 210° |
| 2026-05-06 18:52 | 57.66512 | 12.28182 | 530 ft | 88 kts | 206° |
| 2026-05-06 18:52 | 57.66197 | 12.27929 | 522 ft | 31 kts | 179° |
| 2026-05-06 18:52 | 57.66112 | 12.28087 | 524 ft | 0 kts | 110° |
| 2026-05-06 18:53 | 57.66108 | 12.28148 | 524 ft | 0 kts | 84° |
| 2026-05-06 18:53 | 57.66110 | 12.28155 | 524 ft | 4 kts | 70° |
| 2026-05-06 18:53 | 57.66135 | 12.28190 | 525 ft | 5 kts | 31° |
| 2026-05-06 18:54 | 57.66178 | 12.28234 | 525 ft | 9 kts | 26° |
| 2026-05-06 18:54 | 57.66256 | 12.28304 | 526 ft | 14 kts | 26° |
| 2026-05-06 18:54 | 57.66297 | 12.28440 | 527 ft | 12 kts | 90° |
| 2026-05-06 18:54 | 57.66268 | 12.28577 | 527 ft | 13 kts | 115° |
| 2026-05-06 18:55 | 57.66213 | 12.28706 | 527 ft | 12 kts | 141° |
| 2026-05-06 18:55 | 57.66186 | 12.28773 | 527 ft | 0 kts | 119° |